Time;durP1;ratioP1;P1;durP2;ratioP2;P2;SDS_P1;SDS_P2;PMS_P1;PMS_P2;Temp;Humidity;BMP_temperature;BMP_pressure;BME280_temperature;BME280_humidity;BME280_pressure;Samples;Min_cycle;Max_cycle;Signal;HPM_P1;HPM_P2
2021/05/01 00:01:35;;;;;;;4.88;1.25;;;12.80;97.10;;;;;;5038445;28;20322;-71
2021/05/01 00:04:01;;;;;;;2.67;1.00;;;12.70;98.00;;;;;;5038397;28;20026;-71
2021/05/01 00:06:27;;;;;;;4.68;1.45;;;12.60;98.00;;;;;;5038425;28;20074;-71
2021/05/01 00:08:52;;;;;;;6.07;1.60;;;12.60;98.00;;;;;;5038365;28;20056;-71
2021/05/01 00:11:19;;;;;;;3.13;1.48;;;12.50;98.00;;;;;;5038335;28;20032;-71
2021/05/01 00:13:45;;;;;;;3.70;1.55;;;12.50;98.00;;;;;;5038204;28;20037;-71
2021/05/01 00:16:11;;;;;;;5.18;1.92;;;12.50;98.00;;;;;;5038218;28;20341;-71
2021/05/01 00:18:37;;;;;;;5.13;2.88;;;12.50;98.00;;;;;;5038192;28;20029;-71
2021/05/01 00:21:03;;;;;;;6.00;1.98;;;12.50;98.00;;;;;;5038023;28;20421;-71
2021/05/01 00:23:29;;;;;;;5.55;2.17;;;12.60;98.00;;;;;;5038174;28;20100;-71
2021/05/01 00:25:55;;;;;;;5.45;2.00;;;12.60;98.00;;;;;;5038020;28;20061;-71
2021/05/01 00:28:22;;;;;;;5.25;2.15;;;12.50;98.00;;;;;;5037519;28;20037;-71
2021/05/01 00:30:47;;;;;;;5.30;1.98;;;12.60;98.00;;;;;;5038241;28;20021;-71
2021/05/01 00:33:13;;;;;;;7.70;2.30;;;12.60;98.00;;;;;;5038165;28;20432;-71
2021/05/01 00:35:39;;;;;;;8.90;1.77;;;12.60;98.00;;;;;;5038075;28;20426;-71
2021/05/01 00:38:06;;;;;;;4.53;2.00;;;12.70;98.00;;;;;;5037769;28;20412;-71
2021/05/01 00:40:32;;;;;;;7.13;2.30;;;12.70;98.00;;;;;;5037761;28;20120;-71
2021/05/01 00:42:58;;;;;;;4.72;1.88;;;12.70;97.90;;;;;;5037613;28;20125;-71
2021/05/01 00:45:24;;;;;;;5.45;2.20;;;12.80;96.60;;;;;;5037572;28;20384;-71
2021/05/01 00:47:50;;;;;;;6.65;2.85;;;12.80;97.40;;;;;;5037879;28;20033;-71
2021/05/01 00:50:16;;;;;;;5.15;2.13;;;12.80;98.00;;;;;;5037573;28;20045;-71
2021/05/01 00:52:43;;;;;;;4.90;1.92;;;12.80;98.00;;;;;;5037430;28;20072;-71
2021/05/01 00:55:10;;;;;;;4.32;2.05;;;12.80;98.00;;;;;;5037665;28;20041;-71
2021/05/01 00:57:37;;;;;;;6.80;2.25;;;12.80;98.00;;;;;;5037441;28;20088;-71
2021/05/01 01:03:03;;;;;;;5.60;2.25;;;12.80;97.10;;;;;;5053229;28;20063;-71
2021/05/01 01:05:29;;;;;;;9.60;2.17;;;12.90;96.10;;;;;;5037507;28;20021;-71
2021/05/01 01:07:55;;;;;;;8.18;2.38;;;12.90;96.60;;;;;;5037538;28;20095;-71
2021/05/01 01:10:21;;;;;;;2.55;1.55;;;12.90;96.80;;;;;;5037517;28;20401;-71
2021/05/01 01:12:47;;;;;;;5.03;2.17;;;12.90;96.50;;;;;;5037490;28;20040;-71
2021/05/01 01:15:33;;;;;;;5.18;1.85;;;12.90;97.00;;;;;;5037360;28;20026;-71
2021/05/01 01:17:59;;;;;;;4.55;1.55;;;12.80;97.80;;;;;;5037152;28;20040;-71
2021/05/01 01:20:26;;;;;;;4.10;1.80;;;12.80;98.00;;;;;;5037086;28;20021;-71
2021/05/01 01:22:52;;;;;;;5.22;2.55;;;12.70;98.00;;;;;;5036952;28;20088;-71
2021/05/01 01:25:18;;;;;;;3.28;1.40;;;12.80;97.70;;;;;;5036899;28;20033;-71
2021/05/01 01:27:45;;;;;;;2.75;1.40;;;12.70;96.90;;;;;;5036952;28;20029;-71
2021/05/01 01:30:18;;;;;;;5.55;1.80;;;12.60;97.30;;;;;;5036921;28;20017;-71
2021/05/01 01:32:45;;;;;;;3.75;1.42;;;12.60;97.50;;;;;;5037192;28;20029;-71
2021/05/01 01:35:13;;;;;;;1.90;1.33;;;12.60;97.20;;;;;;5036788;28;20083;-71
2021/05/01 01:37:44;;;;;;;5.15;1.92;;;12.60;97.20;;;;;;5037039;28;20033;-71
2021/05/01 01:40:11;;;;;;;4.25;1.55;;;12.50;97.50;;;;;;5035824;28;20188;-71
2021/05/01 01:42:37;;;;;;;5.07;1.40;;;12.50;97.90;;;;;;5036733;28;20039;-71
2021/05/01 01:45:04;;;;;;;6.45;1.20;;;12.40;98.00;;;;;;5036949;28;20295;-71
2021/05/01 01:47:30;;;;;;;4.28;1.67;;;12.40;98.00;;;;;;5036657;28;20025;-71
2021/05/01 01:49:56;;;;;;;2.42;1.23;;;12.30;98.00;;;;;;5036623;28;20295;-71
2021/05/01 01:52:22;;;;;;;3.92;1.15;;;12.20;98.00;;;;;;5036612;28;20091;-71
2021/05/01 01:54:47;;;;;;;2.75;1.40;;;12.20;97.90;;;;;;5036466;28;20036;-71
2021/05/01 01:57:13;;;;;;;2.90;1.20;;;12.10;97.80;;;;;;5036862;28;20041;-71
2021/05/01 01:59:39;;;;;;;3.53;1.30;;;12.10;97.80;;;;;;5036554;28;20443;-71
2021/05/01 02:02:05;;;;;;;2.80;1.10;;;12.10;97.50;;;;;;5036496;28;20033;-71
2021/05/01 02:04:31;;;;;;;2.60;1.15;;;12.00;97.50;;;;;;5036761;28;20305;-71
2021/05/01 02:06:57;;;;;;;2.38;1.10;;;12.00;97.60;;;;;;5036802;28;20048;-71
2021/05/01 02:09:23;;;;;;;3.47;1.27;;;12.00;97.50;;;;;;5036489;28;20425;-71
2021/05/01 02:11:48;;;;;;;1.90;1.08;;;12.00;97.60;;;;;;5036429;28;20079;-71
2021/05/01 02:14:14;;;;;;;2.83;1.00;;;11.90;97.60;;;;;;5036345;28;20030;-72
2021/05/01 02:16:40;;;;;;;1.25;0.80;;;12.00;96.60;;;;;;5036702;28;20040;-72
2021/05/01 02:19:06;;;;;;;2.65;1.15;;;11.90;96.40;;;;;;5035407;28;20484;-72
2021/05/01 02:21:31;;;;;;;1.98;0.80;;;11.90;96.40;;;;;;5036611;28;20053;-72
2021/05/01 02:23:57;;;;;;;0.70;0.50;;;11.80;96.00;;;;;;5036689;28;20033;-72
2021/05/01 02:26:23;;;;;;;1.10;0.60;;;11.80;95.30;;;;;;5036635;28;20079;-72
2021/05/01 02:28:49;;;;;;;0.65;0.30;;;11.80;95.30;;;;;;5036573;28;20345;-72
2021/05/01 02:31:15;;;;;;;0.90;0.43;;;11.70;95.10;;;;;;5036575;28;20029;-72
2021/05/01 02:33:41;;;;;;;1.80;0.45;;;11.70;95.30;;;;;;5036210;28;20026;-72
2021/05/01 02:36:06;;;;;;;2.15;0.60;;;11.60;95.40;;;;;;5036483;28;20017;-72
2021/05/01 02:38:33;;;;;;;0.93;0.50;;;11.50;96.30;;;;;;5036498;28;20052;-72
2021/05/01 02:40:59;;;;;;;2.90;0.65;;;11.50;97.00;;;;;;5036022;28;20376;-72
2021/05/01 02:43:25;;;;;;;1.15;0.60;;;11.40;97.40;;;;;;5036435;28;20025;-72
2021/05/01 02:45:51;;;;;;;1.83;0.68;;;11.40;97.20;;;;;;5036386;28;20325;-72
2021/05/01 02:48:16;;;;;;;1.00;0.50;;;11.30;97.10;;;;;;5036419;28;20410;-71
2021/05/01 02:50:42;;;;;;;2.45;0.70;;;11.30;97.20;;;;;;5038224;28;20021;-72
2021/05/01 02:53:08;;;;;;;1.30;0.57;;;11.20;97.20;;;;;;5040075;28;20048;-71
2021/05/01 02:55:34;;;;;;;1.70;0.90;;;11.10;97.60;;;;;;5039963;28;20329;-72
2021/05/01 02:57:59;;;;;;;3.13;1.05;;;11.00;98.00;;;;;;5040023;28;20409;-72
2021/05/01 03:00:27;;;;;;;1.40;0.77;;;10.90;98.00;;;;;;5040056;28;20025;-72
2021/05/01 03:02:54;;;;;;;2.00;0.90;;;10.90;98.00;;;;;;5039584;28;20423;-72
2021/05/01 03:05:21;;;;;;;2.20;0.95;;;10.90;98.00;;;;;;5039503;28;20025;-72
2021/05/01 03:07:47;;;;;;;2.40;0.90;;;10.90;98.00;;;;;;5039820;28;20317;-72
2021/05/01 03:10:16;;;;;;;2.28;1.38;;;11.00;98.00;;;;;;5039486;28;20029;-72
2021/05/01 03:12:42;;;;;;;2.85;0.77;;;11.00;98.00;;;;;;5039802;28;20048;-72
2021/05/01 03:15:09;;;;;;;2.97;0.90;;;10.90;98.00;;;;;;5039334;28;20029;-72
2021/05/01 03:17:35;;;;;;;2.25;1.17;;;10.90;98.00;;;;;;5039327;28;20025;-72
2021/05/01 03:20:02;;;;;;;3.70;1.52;;;10.80;98.00;;;;;;5039343;28;20029;-72
2021/05/01 03:22:28;;;;;;;3.53;1.50;;;10.80;98.00;;;;;;5039515;28;20317;-72
2021/05/01 03:24:54;;;;;;;3.80;1.92;;;10.70;98.00;;;;;;5039118;28;20025;-72
2021/05/01 03:27:21;;;;;;;5.00;1.27;;;10.70;98.00;;;;;;5039155;28;20426;-72
2021/05/01 03:29:47;;;;;;;6.18;1.45;;;10.70;98.00;;;;;;5039378;28;20068;-72
2021/05/01 03:32:13;;;;;;;2.40;1.23;;;10.70;98.00;;;;;;5039446;28;20057;-72
2021/05/01 03:34:38;;;;;;;3.58;1.48;;;10.60;98.00;;;;;;5039214;28;20057;-72
2021/05/01 03:37:05;;;;;;;5.65;1.80;;;10.60;98.00;;;;;;5038918;28;20422;-72
2021/05/01 03:39:30;;;;;;;3.85;1.23;;;10.60;98.00;;;;;;5038940;28;20053;-72
2021/05/01 03:41:56;;;;;;;3.63;1.45;;;10.60;98.00;;;;;;5039168;28;20049;-72
2021/05/01 03:44:22;;;;;;;6.15;1.52;;;10.60;98.00;;;;;;5038766;28;20410;-72
2021/05/01 03:46:48;;;;;;;7.18;1.40;;;10.60;98.00;;;;;;5039114;28;20364;-72
2021/05/01 03:49:14;;;;;;;3.28;1.30;;;10.60;98.00;;;;;;5038770;28;20032;-72
2021/05/01 03:51:39;;;;;;;2.17;1.30;;;10.60;98.00;;;;;;5038743;28;20100;-72
2021/05/01 03:54:05;;;;;;;2.90;1.15;;;10.70;98.00;;;;;;5038914;28;20037;-72
2021/05/01 03:56:32;;;;;;;2.28;1.08;;;10.70;98.00;;;;;;5038676;28;20029;-72
2021/05/01 03:58:58;;;;;;;2.65;0.82;;;10.80;98.00;;;;;;5038547;28;20059;-72
2021/05/01 04:01:24;;;;;;;5.22;0.90;;;10.80;98.00;;;;;;5038193;28;20022;-72
2021/05/01 04:03:50;;;;;;;2.95;1.40;;;10.70;98.00;;;;;;5038267;28;20029;-72
2021/05/01 04:06:16;;;;;;;2.92;1.00;;;10.70;98.00;;;;;;5038413;28;20041;-72
2021/05/01 04:08:41;;;;;;;2.00;0.73;;;10.60;98.00;;;;;;5038710;28;20049;-72
2021/05/01 04:11:07;;;;;;;5.88;0.93;;;10.60;98.00;;;;;;5038688;28;20401;-72
2021/05/01 04:13:33;;;;;;;1.88;0.70;;;10.70;97.90;;;;;;5038212;28;20022;-72
2021/05/01 04:15:59;;;;;;;1.80;0.70;;;10.80;97.50;;;;;;5038243;28;20414;-72
2021/05/01 04:18:25;;;;;;;1.05;0.70;;;10.90;97.20;;;;;;5038515;28;20029;-72
2021/05/01 04:20:51;;;;;;;3.33;0.90;;;11.00;96.90;;;;;;5038482;28;20144;-71
2021/05/01 04:23:16;;;;;;;2.88;0.90;;;11.10;96.60;;;;;;5038080;28;20043;-72
2021/05/01 04:25:42;;;;;;;4.00;0.70;;;11.20;96.70;;;;;;5038273;28;20083;-72
2021/05/01 04:28:08;;;;;;;3.42;0.80;;;11.30;96.40;;;;;;5038037;28;20029;-72
2021/05/01 04:30:34;;;;;;;4.53;1.02;;;11.30;96.50;;;;;;5038274;28;20032;-72
2021/05/01 04:32:59;;;;;;;3.05;0.90;;;11.30;96.30;;;;;;5038213;28;20079;-72
2021/05/01 04:35:25;;;;;;;2.55;0.95;;;11.30;96.90;;;;;;5038116;28;20025;-72
2021/05/01 04:37:51;;;;;;;2.80;1.13;;;11.30;97.40;;;;;;5037838;28;20026;-72
2021/05/01 04:40:17;;;;;;;2.17;1.20;;;11.30;97.60;;;;;;5037653;28;20128;-72
2021/05/01 04:42:49;;;;;;;4.75;0.90;;;11.30;98.00;;;;;;5037670;28;20029;-72
2021/05/01 04:45:19;;;;;;;1.80;0.80;;;11.40;98.00;;;;;;5037631;28;20035;-72
2021/05/01 04:47:45;;;;;;;2.03;0.85;;;11.40;97.80;;;;;;5037646;28;20022;-72
2021/05/01 04:50:12;;;;;;;1.95;0.85;;;11.40;97.90;;;;;;5037551;28;20022;-72
2021/05/01 04:52:39;;;;;;;6.88;1.42;;;11.40;98.00;;;;;;5037792;28;20080;-72
2021/05/01 04:55:13;;;;;;;3.20;0.85;;;11.50;98.00;;;;;;5037481;28;20033;-72
2021/05/01 04:57:44;;;;;;;1.67;1.00;;;11.60;98.00;;;;;;5037550;28;20059;-72
2021/05/01 05:00:12;;;;;;;3.60;0.70;;;11.60;98.00;;;;;;5037745;28;20321;-72
2021/05/01 05:02:38;;;;;;;2.55;0.70;;;11.60;96.70;;;;;;5037269;28;20130;-72
2021/05/01 05:05:06;;;;;;;3.50;0.70;;;11.70;96.80;;;;;;5037567;28;20044;-72
2021/05/01 05:07:32;;;;;;;2.33;0.77;;;11.80;95.40;;;;;;5037282;28;20018;-71
2021/05/01 05:09:57;;;;;;;2.60;0.80;;;11.90;93.40;;;;;;5037513;28;20038;-71
2021/05/01 05:12:23;;;;;;;2.75;0.88;;;12.10;92.60;;;;;;5037577;28;20033;-71
2021/05/01 05:14:49;;;;;;;3.45;0.80;;;12.20;92.30;;;;;;5037370;28;20025;-71
2021/05/01 05:17:15;;;;;;;1.35;0.60;;;12.40;89.50;;;;;;5037430;28;20025;-71
2021/05/01 05:19:40;;;;;;;2.22;1.23;;;12.50;89.70;;;;;;5037001;28;20029;-71
2021/05/01 05:22:06;;;;;;;3.75;0.60;;;12.50;91.90;;;;;;5037393;28;20029;-71
2021/05/01 05:24:32;;;;;;;1.40;0.70;;;12.50;91.70;;;;;;5037379;28;20084;-71
2021/05/01 05:26:58;;;;;;;4.35;1.88;;;12.60;90.50;;;;;;5036945;28;20033;-72
2021/05/01 05:29:23;;;;;;;0.75;0.52;;;12.70;89.60;;;;;;5037214;28;20021;-71
2021/05/01 05:31:49;;;;;;;3.20;0.90;;;12.70;90.30;;;;;;5036935;28;20083;-72
2021/05/01 05:34:15;;;;;;;2.08;0.60;;;12.80;89.70;;;;;;5036824;28;20033;-71
2021/05/01 05:36:41;;;;;;;1.33;0.60;;;12.80;88.80;;;;;;5036859;28;20049;-71
2021/05/01 05:39:07;;;;;;;2.45;0.68;;;12.90;88.20;;;;;;5036626;28;20049;-72
2021/05/01 05:41:33;;;;;;;1.42;0.60;;;12.80;88.60;;;;;;5037024;28;20037;-71
2021/05/01 05:44:00;;;;;;;2.30;1.05;;;12.90;87.70;;;;;;5036641;28;20321;-71
2021/05/01 05:46:26;;;;;;;5.78;0.95;;;12.90;90.50;;;;;;5036732;28;20036;-72
2021/05/01 05:48:52;;;;;;;5.50;1.45;;;12.90;94.80;;;;;;5036707;28;20029;-71
2021/05/01 05:51:18;;;;;;;4.28;2.42;;;12.90;96.30;;;;;;5036986;28;20026;-72
2021/05/01 05:53:44;;;;;;;5.22;2.05;;;12.90;96.60;;;;;;5036766;28;20032;-71
2021/05/01 05:56:10;;;;;;;4.20;1.80;;;12.90;97.80;;;;;;5036921;28;20035;-72
2021/05/01 05:58:36;;;;;;;4.25;1.40;;;12.90;95.30;;;;;;5036614;28;20318;-72
2021/05/01 06:01:02;;;;;;;3.35;2.28;;;13.00;96.60;;;;;;5036910;28;20052;-71
2021/05/01 06:03:29;;;;;;;4.82;1.70;;;13.10;94.60;;;;;;5036681;28;20367;-72
2021/05/01 06:06:05;;;;;;;3.78;1.38;;;13.10;94.10;;;;;;5036550;28;20109;-71
2021/05/01 06:08:32;;;;;;;6.47;1.60;;;13.20;95.10;;;;;;5036496;28;20483;-72
2021/05/01 06:11:01;;;;;;;5.35;1.42;;;13.50;94.50;;;;;;5036815;28;20037;-74
2021/05/01 06:13:31;;;;;;;3.10;1.48;;;13.90;92.10;;;;;;5036431;28;20038;-74
2021/05/01 06:15:59;;;;;;;3.42;0.95;;;14.40;91.20;;;;;;5036744;28;20037;-72
2021/05/01 06:18:26;;;;;;;3.55;1.00;;;15.10;87.20;;;;;;5036358;28;20044;-71
2021/05/01 06:20:52;;;;;;;3.15;1.23;;;15.70;88.80;;;;;;5036670;28;20021;-71
2021/05/01 06:23:19;;;;;;;2.63;1.20;;;16.00;86.20;;;;;;5036372;28;20037;-71
2021/05/01 06:25:47;;;;;;;3.47;1.20;;;16.50;83.90;;;;;;5038529;28;20414;-71
2021/05/01 06:28:14;;;;;;;2.00;1.00;;;17.00;84.90;;;;;;5040319;28;20048;-71
2021/05/01 06:30:42;;;;;;;3.40;1.00;;;17.70;83.10;;;;;;5040232;28;20041;-71
2021/05/01 06:33:12;;;;;;;3.55;0.90;;;18.30;80.20;;;;;;5040188;28;20592;-71
2021/05/01 06:35:39;;;;;;;3.33;1.10;;;18.90;78.30;;;;;;5040091;28;20108;-71
2021/05/01 06:38:05;;;;;;;1.77;0.82;;;19.30;77.20;;;;;;5040095;28;20075;-71
2021/05/01 06:40:41;;;;;;;3.90;1.00;;;19.80;75.90;;;;;;5039857;28;20049;-71
2021/05/01 06:43:19;;;;;;;1.50;0.80;;;20.20;73.30;;;;;;5040029;28;20037;-71
2021/05/01 06:45:46;;;;;;;2.40;0.80;;;20.40;73.60;;;;;;5040247;28;20049;-71
2021/05/01 06:48:25;;;;;;;4.65;1.13;;;20.40;73.80;;;;;;5040222;28;20052;-71
2021/05/01 06:50:53;;;;;;;2.35;0.80;;;20.70;72.00;;;;;;5040196;28;20103;-71
2021/05/01 06:53:37;;;;;;;2.63;0.80;;;20.90;70.00;;;;;;5039919;28;20029;-71
2021/05/01 06:56:05;;;;;;;2.83;0.90;;;20.80;71.50;;;;;;5040138;28;20042;-71
2021/05/01 06:58:33;;;;;;;3.22;1.13;;;20.80;73.10;;;;;;5039665;28;20030;-71
2021/05/01 07:01:03;;;;;;;2.13;1.00;;;20.90;68.20;;;;;;5040031;28;20041;-71
2021/05/01 07:03:33;;;;;;;2.65;0.88;;;21.00;66.10;;;;;;5039546;28;20032;-71
2021/05/01 07:06:01;;;;;;;3.03;1.27;;;21.20;66.80;;;;;;5039626;28;20032;-71
2021/05/01 07:08:28;;;;;;;3.65;0.90;;;21.10;65.30;;;;;;5039834;28;20033;-71
2021/05/01 07:10:54;;;;;;;4.43;1.08;;;21.30;66.30;;;;;;5039505;28;20026;-71
2021/05/01 07:13:21;;;;;;;2.15;0.70;;;21.30;64.90;;;;;;5039488;28;20032;-71
2021/05/01 07:15:47;;;;;;;2.70;0.85;;;21.30;67.50;;;;;;5039353;28;20452;-71
2021/05/01 07:18:14;;;;;;;2.47;0.85;;;21.40;66.70;;;;;;5039384;28;20448;-71
2021/05/01 07:20:40;;;;;;;3.50;0.93;;;21.50;67.00;;;;;;5039300;28;20044;-71
2021/05/01 07:23:06;;;;;;;2.90;0.75;;;21.50;68.80;;;;;;5039469;28;20033;-71
2021/05/01 07:25:32;;;;;;;2.10;0.90;;;21.60;69.40;;;;;;5039214;28;20060;-71
2021/05/01 07:28:25;;;;;;;2.90;0.90;;;21.80;68.80;;;;;;5039181;28;20484;-71
2021/05/01 07:30:57;;;;;;;2.90;1.10;;;21.80;67.70;;;;;;5038788;28;20025;-71
2021/05/01 07:33:30;;;;;;;3.22;1.17;;;21.20;68.20;;;;;;5039135;28;20071;-71
2021/05/01 07:36:02;;;;;;;2.65;1.15;;;20.90;69.10;;;;;;5038726;28;20018;-71
2021/05/01 07:38:29;;;;;;;3.67;1.73;;;21.00;69.30;;;;;;5038683;28;20036;-71
2021/05/01 07:40:59;;;;;;;2.63;1.00;;;21.00;69.10;;;;;;5038812;28;20045;-71
2021/05/01 07:43:28;;;;;;;5.20;0.90;;;20.90;70.10;;;;;;5038813;28;20369;-71
2021/05/01 07:45:56;;;;;;;4.78;1.08;;;21.10;69.70;;;;;;5038853;28;20026;-71
2021/05/01 07:48:23;;;;;;;4.60;1.23;;;21.50;67.70;;;;;;5038806;28;20017;-71
2021/05/01 07:50:50;;;;;;;3.33;1.08;;;21.80;67.00;;;;;;5039066;28;20032;-71
2021/05/01 07:53:16;;;;;;;3.50;1.20;;;21.90;66.00;;;;;;5038805;28;20033;-71
2021/05/01 07:55:42;;;;;;;2.78;1.10;;;22.30;67.30;;;;;;5038892;28;20041;-71
2021/05/01 07:58:09;;;;;;;3.33;0.95;;;22.20;66.50;;;;;;5038632;28;20037;-71
2021/05/01 08:00:35;;;;;;;2.50;1.00;;;22.10;67.60;;;;;;5038569;28;20422;-71
2021/05/01 08:03:02;;;;;;;4.53;1.23;;;21.90;67.50;;;;;;5038454;28;20025;-71
2021/05/01 08:05:28;;;;;;;3.97;1.10;;;21.60;67.20;;;;;;5038394;28;20037;-71
2021/05/01 08:07:54;;;;;;;2.63;1.05;;;21.60;66.00;;;;;;5038424;28;20029;-71
2021/05/01 08:10:20;;;;;;;2.35;0.93;;;21.80;64.70;;;;;;5039277;28;20360;-71
2021/05/01 08:12:46;;;;;;;4.38;1.10;;;22.00;64.30;;;;;;5038659;28;20021;-71
2021/05/01 08:15:12;;;;;;;2.42;0.88;;;22.00;66.10;;;;;;5038249;28;20033;-71
2021/05/01 08:17:40;;;;;;;1.75;0.88;;;22.40;63.50;;;;;;5038541;28;20314;-71
2021/05/01 08:20:07;;;;;;;1.20;0.70;;;22.70;62.00;;;;;;5038463;28;20021;-71
2021/05/01 08:22:33;;;;;;;2.38;0.90;;;23.10;62.00;;;;;;5038026;28;20417;-72
2021/05/01 08:24:59;;;;;;;6.05;1.17;;;23.30;63.00;;;;;;5038014;28;20037;-72
2021/05/01 08:27:25;;;;;;;2.75;1.10;;;23.30;61.50;;;;;;5038324;28;20033;-72
2021/05/01 08:29:51;;;;;;;2.88;1.20;;;23.20;60.40;;;;;;5037984;28;20036;-72
2021/05/01 08:32:17;;;;;;;3.05;1.20;;;22.90;63.60;;;;;;5038018;28;20029;-72
2021/05/01 08:34:43;;;;;;;4.47;1.42;;;23.10;61.00;;;;;;5037846;28;20429;-72
2021/05/01 08:37:10;;;;;;;3.33;1.10;;;23.20;61.80;;;;;;5038181;28;20306;-72
2021/05/01 08:39:36;;;;;;;3.13;1.10;;;23.20;60.50;;;;;;5037882;28;20052;-72
2021/05/01 08:42:02;;;;;;;3.60;1.38;;;23.00;61.20;;;;;;5038011;28;20325;-72
2021/05/01 08:44:28;;;;;;;2.95;0.93;;;23.60;62.50;;;;;;5037985;28;20436;-72
2021/05/01 08:46:53;;;;;;;3.97;1.00;;;24.10;61.10;;;;;;5038001;28;20021;-72
2021/05/01 08:49:19;;;;;;;2.22;1.20;;;24.10;60.70;;;;;;5037347;28;20032;-72
2021/05/01 08:51:45;;;;;;;2.47;1.20;;;24.20;58.40;;;;;;5037640;28;20036;-72
2021/05/01 08:54:15;;;;;;;3.78;1.17;;;24.10;61.80;;;;;;5037835;28;20030;-72
2021/05/01 08:56:43;;;;;;;2.65;1.00;;;24.20;60.20;;;;;;5037832;28;20079;-72
2021/05/01 08:59:09;;;;;;;2.15;0.90;;;24.40;59.50;;;;;;5037764;28;20361;-72
2021/05/01 09:01:37;;;;;;;3.75;1.60;;;24.60;61.90;;;;;;5037692;28;20049;-72
2021/05/01 09:04:05;;;;;;;2.33;1.17;;;24.80;61.30;;;;;;5037308;28;20034;-72
2021/05/01 09:06:31;;;;;;;5.45;1.38;;;24.80;60.30;;;;;;5037329;28;20033;-72
2021/05/01 09:09:05;;;;;;;2.45;1.50;;;24.30;61.60;;;;;;5037625;28;20025;-72
2021/05/01 09:11:38;;;;;;;4.07;1.90;;;24.40;62.20;;;;;;5037615;28;20022;-72
2021/05/01 09:14:26;;;;;;;3.17;1.85;;;23.90;63.60;;;;;;5037156;28;20036;-72
2021/05/01 09:17:07;;;;;;;4.25;1.77;;;23.50;64.50;;;;;;5037138;28;20075;-72
2021/05/01 09:19:37;;;;;;;4.97;2.22;;;22.50;64.10;;;;;;5037435;28;20105;-71
2021/05/01 09:22:09;;;;;;;3.67;2.17;;;21.60;69.30;;;;;;5037367;28;20080;-71
2021/05/01 09:24:36;;;;;;;5.35;2.20;;;20.90;68.80;;;;;;5037368;28;20039;-71
2021/05/01 09:27:03;;;;;;;4.55;2.38;;;20.30;70.50;;;;;;5037288;28;20075;-71
2021/05/01 09:29:31;;;;;;;4.03;2.35;;;19.90;71.10;;;;;;5036876;28;20409;-71
2021/05/01 09:31:58;;;;;;;4.75;2.03;;;19.70;72.30;;;;;;5036984;28;20029;-71
2021/05/01 09:34:50;;;;;;;2.97;1.70;;;19.50;71.40;;;;;;5037155;28;20021;-71
2021/05/01 09:37:18;;;;;;;5.65;2.45;;;19.10;71.30;;;;;;5036832;28;20032;-71
2021/05/01 09:39:53;;;;;;;8.07;3.00;;;18.90;75.70;;;;;;5036593;28;20045;-71
2021/05/01 09:42:20;;;;;;;5.85;2.70;;;19.00;75.60;;;;;;5037051;28;20037;-71
2021/05/01 09:44:47;;;;;;;5.30;2.60;;;19.60;75.20;;;;;;5036982;28;20053;-71
2021/05/01 09:47:17;;;;;;;6.28;2.55;;;20.40;74.70;;;;;;5036983;28;20030;-71
2021/05/01 09:49:47;;;;;;;5.32;2.60;;;20.40;72.50;;;;;;5036973;28;20025;-71
2021/05/01 09:52:15;;;;;;;6.85;2.70;;;20.40;70.40;;;;;;5036767;28;20029;-71
2021/05/01 09:54:46;;;;;;;5.85;2.88;;;20.10;71.90;;;;;;5037058;28;20052;-71
2021/05/01 09:57:17;;;;;;;4.65;2.50;;;19.70;72.50;;;;;;5036586;28;20418;-71
2021/05/01 09:59:44;;;;;;;6.40;2.80;;;19.60;74.60;;;;;;5035872;28;20029;-71
2021/05/01 10:02:16;;;;;;;5.78;2.53;;;19.40;73.10;;;;;;5037464;28;20025;-71
2021/05/01 10:05:00;;;;;;;4.93;2.53;;;19.30;75.00;;;;;;5036503;28;20033;-71
2021/05/01 10:07:27;;;;;;;8.75;2.90;;;19.30;75.30;;;;;;5036419;28;20021;-71
2021/05/01 10:09:58;;;;;;;4.80;2.50;;;19.30;76.50;;;;;;5036499;28;20032;-71
2021/05/01 10:12:34;;;;;;;7.13;2.88;;;19.30;75.00;;;;;;5036488;28;20029;-71
2021/05/01 10:15:03;;;;;;;5.05;2.45;;;19.40;76.00;;;;;;5035922;28;20033;-71
2021/05/01 10:17:29;;;;;;;6.63;2.83;;;19.60;77.50;;;;;;5047162;28;20055;-71
2021/05/01 10:19:56;;;;;;;9.00;2.70;;;19.60;76.00;;;;;;5056571;28;20309;-71
2021/05/01 10:22:35;;;;;;;9.25;3.30;;;19.50;77.60;;;;;;5056288;28;20025;-71
2021/05/01 10:25:17;;;;;;;6.85;3.53;;;19.70;75.60;;;;;;5056560;28;20049;-71
2021/05/01 10:27:50;;;;;;;6.82;2.65;;;20.10;76.90;;;;;;5056644;28;20024;-71
2021/05/01 10:30:29;;;;;;;10.55;3.40;;;20.60;74.70;;;;;;5056204;28;20413;-71
2021/05/01 10:33:41;;;;;;;6.88;2.50;;;21.80;75.10;;;;;;5056544;28;20032;-71
2021/05/01 10:36:14;;;;;;;8.32;2.25;;;22.60;66.40;;;;;;5056044;28;20037;-71
2021/05/01 10:38:40;;;;;;;7.78;2.38;;;23.20;66.90;;;;;;5056474;28;20029;-71
2021/05/01 10:41:08;;;;;;;6.25;2.40;;;23.40;67.40;;;;;;5056108;28;20052;-71
2021/05/01 10:43:39;;;;;;;7.28;3.10;;;22.80;64.10;;;;;;5055955;28;20090;-71
2021/05/01 10:46:07;;;;;;;5.82;2.47;;;22.50;67.40;;;;;;5056415;28;20325;-71
2021/05/01 10:48:59;;;;;;;9.40;3.33;;;22.20;69.20;;;;;;5056375;28;20021;-71
2021/05/01 10:51:27;;;;;;;5.72;3.05;;;21.90;67.80;;;;;;5056383;28;20321;-71
2021/05/01 10:54:21;;;;;;;9.30;2.83;;;21.70;68.30;;;;;;5056317;28;20032;-71
2021/05/01 10:56:50;;;;;;;11.48;3.00;;;21.50;68.20;;;;;;5056084;28;20150;-72
2021/05/01 10:59:21;;;;;;;8.27;2.85;;;21.60;73.80;;;;;;5055969;28;20021;-71
2021/05/01 11:01:49;;;;;;;7.80;2.85;;;22.10;68.60;;;;;;5055924;28;20418;-71
2021/05/01 11:04:26;;;;;;;6.45;2.50;;;22.90;71.90;;;;;;5056237;28;20314;-71
2021/05/01 11:07:02;;;;;;;6.95;3.08;;;22.90;65.10;;;;;;5056182;28;20321;-71
2021/05/01 11:09:42;;;;;;;10.02;3.00;;;22.40;68.40;;;;;;5056226;28;20025;-71
2021/05/01 11:12:10;;;;;;;5.57;2.45;;;22.10;69.00;;;;;;5058551;28;20033;-71
2021/05/01 11:14:51;;;;;;;6.90;3.17;;;22.50;70.10;;;;;;5059315;28;20025;-71
2021/05/01 11:17:32;;;;;;;6.72;2.90;;;22.70;67.10;;;;;;5059356;28;20086;-71
2021/05/01 11:20:01;;;;;;;7.57;2.60;;;22.30;66.80;;;;;;5059303;28;20037;-72
2021/05/01 11:22:27;;;;;;;8.27;3.17;;;21.90;67.70;;;;;;5059519;28;20048;-71
2021/05/01 11:24:57;;;;;;;8.00;2.65;;;21.60;70.80;;;;;;5059608;28;20029;-71
2021/05/01 11:27:24;;;;;;;5.28;2.35;;;21.40;71.70;;;;;;5059491;28;20025;-71
2021/05/01 11:29:51;;;;;;;4.80;2.47;;;21.40;70.10;;;;;;5059107;28;20021;-71
2021/05/01 11:32:18;;;;;;;6.07;2.72;;;21.50;72.10;;;;;;5059140;28;20029;-71
2021/05/01 11:34:47;;;;;;;7.65;2.33;;;21.60;70.40;;;;;;5059004;28;20100;-71
2021/05/01 11:37:13;;;;;;;6.45;2.25;;;21.50;72.20;;;;;;5059006;28;20028;-71
2021/05/01 11:39:40;;;;;;;5.95;2.33;;;21.60;69.90;;;;;;5058756;28;20037;-71
2021/05/01 11:42:07;;;;;;;12.75;2.55;;;21.70;71.90;;;;;;5059100;28;20036;-71
2021/05/01 11:44:33;;;;;;;4.72;2.00;;;21.50;72.10;;;;;;5058776;28;20021;-71
2021/05/01 11:47:14;;;;;;;6.45;2.67;;;21.00;71.60;;;;;;5058838;28;20443;-71
2021/05/01 11:49:40;;;;;;;8.30;2.78;;;20.90;76.10;;;;;;5059014;28;20025;-72
2021/05/01 11:52:23;;;;;;;5.97;2.45;;;21.30;73.10;;;;;;5058755;28;20150;-71
2021/05/01 11:55:11;;;;;;;7.25;2.67;;;21.70;68.90;;;;;;5058537;28;20333;-71
2021/05/01 11:57:49;;;;;;;6.78;2.90;;;21.70;70.60;;;;;;5058889;28;20385;-71
2021/05/01 12:00:41;;;;;;;7.35;2.38;;;21.40;69.30;;;;;;5058904;28;20029;-71
2021/05/01 12:03:18;;;;;;;5.95;2.20;;;20.90;71.10;;;;;;5058459;28;20036;-71
2021/05/01 12:05:48;;;;;;;8.25;2.58;;;21.00;73.60;;;;;;5058343;28;20488;-71
2021/05/01 12:08:21;;;;;;;7.85;3.08;;;20.90;71.10;;;;;;5058304;28;20057;-71
2021/05/01 12:10:57;;;;;;;6.38;2.42;;;20.80;70.40;;;;;;5058662;28;20020;-71
2021/05/01 12:13:27;;;;;;;6.32;2.55;;;20.70;73.40;;;;;;5058265;28;20037;-71
2021/05/01 12:15:55;;;;;;;7.60;2.60;;;21.10;73.30;;;;;;5058595;28;20462;-71
2021/05/01 12:18:22;;;;;;;5.75;2.65;;;21.10;73.80;;;;;;5058265;28;20029;-71
2021/05/01 12:20:54;;;;;;;5.00;2.45;;;21.30;70.40;;;;;;5058488;28;20039;-71
2021/05/01 12:23:41;;;;;;;12.93;3.08;;;21.50;70.90;;;;;;5057775;28;20387;-71
2021/05/01 12:26:07;;;;;;;8.85;2.83;;;21.50;69.90;;;;;;5058082;28;20032;-71
2021/05/01 12:28:39;;;;;;;5.55;3.42;;;21.60;71.30;;;;;;5058029;28;20029;-71
2021/05/01 12:31:06;;;;;;;5.90;2.47;;;21.70;68.90;;;;;;5058323;28;20060;-71
2021/05/01 12:33:32;;;;;;;6.30;2.47;;;21.80;72.00;;;;;;5058200;28;20113;-72
2021/05/01 12:36:11;;;;;;;5.55;2.58;;;21.70;69.60;;;;;;5057863;28;20127;-72
2021/05/01 12:38:39;;;;;;;5.45;2.00;;;21.90;69.70;;;;;;5057876;28;20033;-72
2021/05/01 12:41:08;;;;;;;7.38;2.38;;;22.00;70.00;;;;;;5057482;28;20045;-71
2021/05/01 12:43:33;;;;;;;6.50;2.10;;;22.10;73.00;;;;;;5057595;28;20033;-71
2021/05/01 12:46:30;;;;;;;7.05;2.63;;;22.30;73.70;;;;;;5057644;28;20029;-71
2021/05/01 12:48:58;;;;;;;8.75;2.30;;;22.20;68.30;;;;;;5057622;28;20112;-71
2021/05/01 12:51:34;;;;;;;8.70;2.90;;;22.00;69.80;;;;;;5057630;28;20021;-71
2021/05/01 12:54:20;;;;;;;7.72;2.30;;;21.90;72.60;;;;;;5057909;28;20286;-71
2021/05/01 12:56:57;;;;;;;6.55;2.60;;;21.60;69.00;;;;;;5056928;28;20049;-71